sensor_id;sensor_type;location;lat;lon;timestamp;temperature;humidity
9486;DHT22;4781;48.776;9.200;2023-09-19T00:00:51;17.80;99.90
9486;DHT22;4781;48.776;9.200;2023-09-19T00:03:22;17.70;99.90
9486;DHT22;4781;48.776;9.200;2023-09-19T00:05:52;17.70;99.90
9486;DHT22;4781;48.776;9.200;2023-09-19T00:08:22;17.70;99.90
9486;DHT22;4781;48.776;9.200;2023-09-19T00:10:50;17.80;99.90
9486;DHT22;4781;48.776;9.200;2023-09-19T00:13:20;17.80;99.90
9486;DHT22;4781;48.776;9.200;2023-09-19T00:15:48;17.80;99.90
9486;DHT22;4781;48.776;9.200;2023-09-19T00:18:19;17.70;99.90
9486;DHT22;4781;48.776;9.200;2023-09-19T00:20:48;17.70;99.90
9486;DHT22;4781;48.776;9.200;2023-09-19T00:23:18;17.60;99.90
9486;DHT22;4781;48.776;9.200;2023-09-19T00:25:46;17.60;99.90
9486;DHT22;4781;48.776;9.200;2023-09-19T00:28:15;17.60;99.90
9486;DHT22;4781;48.776;9.200;2023-09-19T00:30:45;17.60;99.90
9486;DHT22;4781;48.776;9.200;2023-09-19T00:33:16;17.50;99.90
9486;DHT22;4781;48.776;9.200;2023-09-19T00:35:53;17.50;99.90
9486;DHT22;4781;48.776;9.200;2023-09-19T00:38:22;17.50;99.90
9486;DHT22;4781;48.776;9.200;2023-09-19T00:40:53;17.50;99.90
9486;DHT22;4781;48.776;9.200;2023-09-19T00:43:23;17.50;99.90
9486;DHT22;4781;48.776;9.200;2023-09-19T00:45:53;17.50;99.90
9486;DHT22;4781;48.776;9.200;2023-09-19T00:48:23;17.40;99.90
9486;DHT22;4781;48.776;9.200;2023-09-19T00:50:54;17.40;99.90
9486;DHT22;4781;48.776;9.200;2023-09-19T00:53:24;17.40;99.90
9486;DHT22;4781;48.776;9.200;2023-09-19T00:55:54;17.30;99.90
9486;DHT22;4781;48.776;9.200;2023-09-19T00:58:22;17.30;99.90
9486;DHT22;4781;48.776;9.200;2023-09-19T01:00:51;17.30;99.90
9486;DHT22;4781;48.776;9.200;2023-09-19T01:03:20;17.30;99.90
9486;DHT22;4781;48.776;9.200;2023-09-19T01:05:50;17.30;99.90
9486;DHT22;4781;48.776;9.200;2023-09-19T01:08:18;17.20;99.90
9486;DHT22;4781;48.776;9.200;2023-09-19T01:10:52;17.30;99.90
9486;DHT22;4781;48.776;9.200;2023-09-19T01:13:39;17.30;99.90
9486;DHT22;4781;48.776;9.200;2023-09-19T01:16:36;17.20;99.90
9486;DHT22;4781;48.776;9.200;2023-09-19T01:19:41;17.20;99.90
9486;DHT22;4781;48.776;9.200;2023-09-19T01:25:20;17.20;99.90
9486;DHT22;4781;48.776;9.200;2023-09-19T01:28:29;17.20;99.90
9486;DHT22;4781;48.776;9.200;2023-09-19T01:30:58;17.30;99.90
9486;DHT22;4781;48.776;9.200;2023-09-19T01:33:28;17.30;99.90
9486;DHT22;4781;48.776;9.200;2023-09-19T01:35:59;17.30;99.90
9486;DHT22;4781;48.776;9.200;2023-09-19T01:38:28;17.30;99.90
9486;DHT22;4781;48.776;9.200;2023-09-19T01:41:03;17.30;99.90
9486;DHT22;4781;48.776;9.200;2023-09-19T01:43:37;17.30;99.90
9486;DHT22;4781;48.776;9.200;2023-09-19T01:46:13;17.30;99.90
9486;DHT22;4781;48.776;9.200;2023-09-19T01:49:12;17.30;99.90
9486;DHT22;4781;48.776;9.200;2023-09-19T01:51:56;17.20;99.90
9486;DHT22;4781;48.776;9.200;2023-09-19T01:57:29;17.30;99.90
9486;DHT22;4781;48.776;9.200;2023-09-19T02:00:09;17.30;99.90
9486;DHT22;4781;48.776;9.200;2023-09-19T02:05:26;17.30;99.90
9486;DHT22;4781;48.776;9.200;2023-09-19T02:07:55;17.30;99.90
9486;DHT22;4781;48.776;9.200;2023-09-19T02:10:25;17.30;99.90
9486;DHT22;4781;48.776;9.200;2023-09-19T02:12:53;17.30;99.90
9486;DHT22;4781;48.776;9.200;2023-09-19T02:15:23;17.30;99.90
9486;DHT22;4781;48.776;9.200;2023-09-19T02:17:51;17.30;99.90
9486;DHT22;4781;48.776;9.200;2023-09-19T02:20:20;17.20;99.90
9486;DHT22;4781;48.776;9.200;2023-09-19T02:22:48;17.10;99.90
9486;DHT22;4781;48.776;9.200;2023-09-19T02:25:18;17.20;99.90
9486;DHT22;4781;48.776;9.200;2023-09-19T02:27:47;17.20;99.90
9486;DHT22;4781;48.776;9.200;2023-09-19T02:30:15;17.20;99.90
9486;DHT22;4781;48.776;9.200;2023-09-19T02:32:46;17.20;99.90
9486;DHT22;4781;48.776;9.200;2023-09-19T02:35:16;17.20;99.90
9486;DHT22;4781;48.776;9.200;2023-09-19T02:37:46;17.20;99.90
9486;DHT22;4781;48.776;9.200;2023-09-19T02:40:15;17.20;99.90
9486;DHT22;4781;48.776;9.200;2023-09-19T02:42:47;17.10;99.90
9486;DHT22;4781;48.776;9.200;2023-09-19T02:45:17;17.10;99.90
9486;DHT22;4781;48.776;9.200;2023-09-19T02:47:47;17.10;99.90
9486;DHT22;4781;48.776;9.200;2023-09-19T02:50:16;17.10;99.90
9486;DHT22;4781;48.776;9.200;2023-09-19T02:52:45;17.00;99.90
9486;DHT22;4781;48.776;9.200;2023-09-19T02:55:17;17.00;99.90
9486;DHT22;4781;48.776;9.200;2023-09-19T02:57:48;17.00;99.90
9486;DHT22;4781;48.776;9.200;2023-09-19T03:00:21;17.00;99.90
9486;DHT22;4781;48.776;9.200;2023-09-19T03:02:52;17.00;99.90
9486;DHT22;4781;48.776;9.200;2023-09-19T03:05:22;17.10;99.90
9486;DHT22;4781;48.776;9.200;2023-09-19T03:07:51;17.10;99.90
9486;DHT22;4781;48.776;9.200;2023-09-19T03:10:20;17.70;99.90
9486;DHT22;4781;48.776;9.200;2023-09-19T03:12:50;17.10;99.90
9486;DHT22;4781;48.776;9.200;2023-09-19T03:15:18;17.10;99.90
9486;DHT22;4781;48.776;9.200;2023-09-19T03:17:50;17.20;99.90
9486;DHT22;4781;48.776;9.200;2023-09-19T03:20:20;17.20;99.90
9486;DHT22;4781;48.776;9.200;2023-09-19T03:22:49;17.20;99.90
9486;DHT22;4781;48.776;9.200;2023-09-19T03:25:18;17.20;99.90
9486;DHT22;4781;48.776;9.200;2023-09-19T03:27:48;17.20;99.90
9486;DHT22;4781;48.776;9.200;2023-09-19T03:30:17;17.20;99.90
9486;DHT22;4781;48.776;9.200;2023-09-19T03:32:46;17.20;99.90
9486;DHT22;4781;48.776;9.200;2023-09-19T03:35:17;17.20;99.90
9486;DHT22;4781;48.776;9.200;2023-09-19T03:37:46;17.20;99.90
9486;DHT22;4781;48.776;9.200;2023-09-19T03:40:14;17.30;99.90
9486;DHT22;4781;48.776;9.200;2023-09-19T03:42:43;17.30;99.90
9486;DHT22;4781;48.776;9.200;2023-09-19T03:45:13;17.20;99.90
9486;DHT22;4781;48.776;9.200;2023-09-19T03:47:42;17.30;99.90
9486;DHT22;4781;48.776;9.200;2023-09-19T03:50:12;17.30;99.90
9486;DHT22;4781;48.776;9.200;2023-09-19T03:52:47;17.30;99.90
9486;DHT22;4781;48.776;9.200;2023-09-19T03:55:15;17.20;99.90
9486;DHT22;4781;48.776;9.200;2023-09-19T03:57:47;17.20;99.90
9486;DHT22;4781;48.776;9.200;2023-09-19T04:00:19;17.30;99.90
9486;DHT22;4781;48.776;9.200;2023-09-19T04:02:51;17.30;99.90
9486;DHT22;4781;48.776;9.200;2023-09-19T04:05:19;16.70;99.90
9486;DHT22;4781;48.776;9.200;2023-09-19T04:07:48;17.30;99.90
9486;DHT22;4781;48.776;9.200;2023-09-19T04:10:17;17.20;99.90
9486;DHT22;4781;48.776;9.200;2023-09-19T04:12:52;17.20;99.90
9486;DHT22;4781;48.776;9.200;2023-09-19T04:15:21;17.20;99.90
9486;DHT22;4781;48.776;9.200;2023-09-19T04:17:50;17.20;99.90
9486;DHT22;4781;48.776;9.200;2023-09-19T04:20:19;17.20;99.90
9486;DHT22;4781;48.776;9.200;2023-09-19T04:22:50;17.20;99.90
9486;DHT22;4781;48.776;9.200;2023-09-19T04:25:18;17.20;99.90
9486;DHT22;4781;48.776;9.200;2023-09-19T04:27:47;17.20;99.90
9486;DHT22;4781;48.776;9.200;2023-09-19T04:30:15;17.30;99.90
9486;DHT22;4781;48.776;9.200;2023-09-19T04:32:44;17.30;99.90
9486;DHT22;4781;48.776;9.200;2023-09-19T04:35:14;17.20;99.90
9486;DHT22;4781;48.776;9.200;2023-09-19T04:37:42;17.30;99.90
9486;DHT22;4781;48.776;9.200;2023-09-19T04:40:11;17.20;99.90
9486;DHT22;4781;48.776;9.200;2023-09-19T04:42:41;17.20;99.90
9486;DHT22;4781;48.776;9.200;2023-09-19T04:45:10;17.20;99.90
9486;DHT22;4781;48.776;9.200;2023-09-19T04:47:39;17.20;99.90
9486;DHT22;4781;48.776;9.200;2023-09-19T04:50:08;17.20;99.90
9486;DHT22;4781;48.776;9.200;2023-09-19T04:52:40;17.20;99.90
9486;DHT22;4781;48.776;9.200;2023-09-19T04:55:13;16.70;99.90
9486;DHT22;4781;48.776;9.200;2023-09-19T04:57:47;17.10;99.90
9486;DHT22;4781;48.776;9.200;2023-09-19T05:00:18;17.00;99.90
9486;DHT22;4781;48.776;9.200;2023-09-19T05:02:50;17.00;99.90
9486;DHT22;4781;48.776;9.200;2023-09-19T05:05:19;17.00;99.90
9486;DHT22;4781;48.776;9.200;2023-09-19T05:07:49;17.00;99.90
9486;DHT22;4781;48.776;9.200;2023-09-19T05:10:19;17.00;99.90
9486;DHT22;4781;48.776;9.200;2023-09-19T05:12:48;16.90;99.90
9486;DHT22;4781;48.776;9.200;2023-09-19T05:15:18;16.90;99.90
9486;DHT22;4781;48.776;9.200;2023-09-19T05:17:50;16.90;99.90
9486;DHT22;4781;48.776;9.200;2023-09-19T05:20:21;16.90;99.90
9486;DHT22;4781;48.776;9.200;2023-09-19T05:23:04;16.80;99.90
9486;DHT22;4781;48.776;9.200;2023-09-19T05:25:36;16.80;99.90
9486;DHT22;4781;48.776;9.200;2023-09-19T05:28:07;16.70;99.90
9486;DHT22;4781;48.776;9.200;2023-09-19T05:30:38;16.70;99.90
9486;DHT22;4781;48.776;9.200;2023-09-19T05:33:06;16.60;99.90
9486;DHT22;4781;48.776;9.200;2023-09-19T05:35:35;16.60;99.90
9486;DHT22;4781;48.776;9.200;2023-09-19T05:38:08;16.60;99.90
9486;DHT22;4781;48.776;9.200;2023-09-19T05:40:38;16.50;99.90
9486;DHT22;4781;48.776;9.200;2023-09-19T05:43:09;16.60;99.90
9486;DHT22;4781;48.776;9.200;2023-09-19T05:45:37;16.50;99.90
9486;DHT22;4781;48.776;9.200;2023-09-19T05:48:11;16.60;99.90
9486;DHT22;4781;48.776;9.200;2023-09-19T05:50:41;16.60;99.90
9486;DHT22;4781;48.776;9.200;2023-09-19T05:53:10;16.60;99.90
9486;DHT22;4781;48.776;9.200;2023-09-19T05:55:40;16.50;99.90
9486;DHT22;4781;48.776;9.200;2023-09-19T05:58:08;16.30;99.90
9486;DHT22;4781;48.776;9.200;2023-09-19T06:00:39;16.10;99.90
9486;DHT22;4781;48.776;9.200;2023-09-19T06:03:09;16.00;99.90
9486;DHT22;4781;48.776;9.200;2023-09-19T06:05:39;16.00;99.90
9486;DHT22;4781;48.776;9.200;2023-09-19T06:08:08;15.90;99.90
9486;DHT22;4781;48.776;9.200;2023-09-19T06:10:36;15.90;99.90
9486;DHT22;4781;48.776;9.200;2023-09-19T06:13:05;15.90;99.90
9486;DHT22;4781;48.776;9.200;2023-09-19T06:15:35;15.90;99.90
9486;DHT22;4781;48.776;9.200;2023-09-19T06:18:04;15.90;99.90
9486;DHT22;4781;48.776;9.200;2023-09-19T06:20:33;15.90;99.90
9486;DHT22;4781;48.776;9.200;2023-09-19T06:23:03;15.90;99.90
9486;DHT22;4781;48.776;9.200;2023-09-19T06:25:31;15.80;99.90
9486;DHT22;4781;48.776;9.200;2023-09-19T06:28:00;15.90;99.90
9486;DHT22;4781;48.776;9.200;2023-09-19T06:30:30;15.80;99.90
9486;DHT22;4781;48.776;9.200;2023-09-19T06:32:59;15.80;99.90
9486;DHT22;4781;48.776;9.200;2023-09-19T06:35:29;15.80;99.90
9486;DHT22;4781;48.776;9.200;2023-09-19T06:38:05;15.90;99.90
9486;DHT22;4781;48.776;9.200;2023-09-19T06:40:30;15.80;99.90
9486;DHT22;4781;48.776;9.200;2023-09-19T06:42:59;15.90;99.90
9486;DHT22;4781;48.776;9.200;2023-09-19T06:45:28;15.90;99.90
9486;DHT22;4781;48.776;9.200;2023-09-19T06:47:58;15.90;99.90
9486;DHT22;4781;48.776;9.200;2023-09-19T06:50:28;15.90;99.90
9486;DHT22;4781;48.776;9.200;2023-09-19T06:52:58;15.90;99.90
9486;DHT22;4781;48.776;9.200;2023-09-19T06:55:27;15.90;99.90
9486;DHT22;4781;48.776;9.200;2023-09-19T06:57:57;16.00;99.90
9486;DHT22;4781;48.776;9.200;2023-09-19T07:00:25;15.90;99.90
9486;DHT22;4781;48.776;9.200;2023-09-19T07:02:59;16.00;99.90
9486;DHT22;4781;48.776;9.200;2023-09-19T07:05:31;16.00;99.90
9486;DHT22;4781;48.776;9.200;2023-09-19T07:08:00;16.10;99.90
9486;DHT22;4781;48.776;9.200;2023-09-19T07:10:29;16.10;99.90
9486;DHT22;4781;48.776;9.200;2023-09-19T07:13:02;16.20;99.90
9486;DHT22;4781;48.776;9.200;2023-09-19T07:15:33;16.30;99.90
9486;DHT22;4781;48.776;9.200;2023-09-19T07:18:04;16.30;99.90
9486;DHT22;4781;48.776;9.200;2023-09-19T07:20:33;16.40;99.90
9486;DHT22;4781;48.776;9.200;2023-09-19T07:23:02;16.40;99.90
9486;DHT22;4781;48.776;9.200;2023-09-19T07:25:31;16.40;99.90
9486;DHT22;4781;48.776;9.200;2023-09-19T07:27:59;16.40;99.90
9486;DHT22;4781;48.776;9.200;2023-09-19T07:30:28;16.40;99.90
9486;DHT22;4781;48.776;9.200;2023-09-19T07:32:57;16.40;99.90
9486;DHT22;4781;48.776;9.200;2023-09-19T07:35:25;16.30;99.90
9486;DHT22;4781;48.776;9.200;2023-09-19T07:37:54;16.30;99.90
9486;DHT22;4781;48.776;9.200;2023-09-19T07:40:23;16.30;99.90
9486;DHT22;4781;48.776;9.200;2023-09-19T07:42:53;16.40;99.90
9486;DHT22;4781;48.776;9.200;2023-09-19T07:45:22;16.40;99.90
9486;DHT22;4781;48.776;9.200;2023-09-19T07:47:51;16.50;99.90
9486;DHT22;4781;48.776;9.200;2023-09-19T07:50:20;16.70;99.90
9486;DHT22;4781;48.776;9.200;2023-09-19T07:52:49;16.80;99.90
9486;DHT22;4781;48.776;9.200;2023-09-19T07:55:20;16.90;99.90
9486;DHT22;4781;48.776;9.200;2023-09-19T07:57:50;16.90;99.90
9486;DHT22;4781;48.776;9.200;2023-09-19T08:00:20;17.00;99.90
9486;DHT22;4781;48.776;9.200;2023-09-19T08:02:49;17.00;99.90
9486;DHT22;4781;48.776;9.200;2023-09-19T08:05:18;17.00;99.90
9486;DHT22;4781;48.776;9.200;2023-09-19T08:07:47;17.00;99.90
9486;DHT22;4781;48.776;9.200;2023-09-19T08:10:16;17.10;99.90
9486;DHT22;4781;48.776;9.200;2023-09-19T08:12:47;17.20;99.90
9486;DHT22;4781;48.776;9.200;2023-09-19T08:15:19;17.20;99.90
9486;DHT22;4781;48.776;9.200;2023-09-19T08:17:48;17.20;99.90
9486;DHT22;4781;48.776;9.200;2023-09-19T08:20:17;17.40;99.90
9486;DHT22;4781;48.776;9.200;2023-09-19T08:25:41;17.60;99.90
9486;DHT22;4781;48.776;9.200;2023-09-19T08:28:10;17.60;99.90
9486;DHT22;4781;48.776;9.200;2023-09-19T08:30:40;17.70;99.90
9486;DHT22;4781;48.776;9.200;2023-09-19T08:33:08;17.70;99.90
9486;DHT22;4781;48.776;9.200;2023-09-19T08:35:37;17.70;99.90
9486;DHT22;4781;48.776;9.200;2023-09-19T08:38:06;17.70;99.90
9486;DHT22;4781;48.776;9.200;2023-09-19T08:40:36;17.90;99.90
9486;DHT22;4781;48.776;9.200;2023-09-19T08:43:07;18.20;99.90
9486;DHT22;4781;48.776;9.200;2023-09-19T08:45:35;18.20;99.90
9486;DHT22;4781;48.776;9.200;2023-09-19T08:48:29;18.10;99.90
9486;DHT22;4781;48.776;9.200;2023-09-19T08:51:03;18.10;99.90
9486;DHT22;4781;48.776;9.200;2023-09-19T08:56:18;17.90;99.90
9486;DHT22;4781;48.776;9.200;2023-09-19T09:01:29;18.00;99.90
9486;DHT22;4781;48.776;9.200;2023-09-19T09:03:59;17.90;99.90
9486;DHT22;4781;48.776;9.200;2023-09-19T09:06:30;18.10;99.90
9486;DHT22;4781;48.776;9.200;2023-09-19T09:08:59;18.30;99.90
9486;DHT22;4781;48.776;9.200;2023-09-19T09:11:28;18.50;99.90
9486;DHT22;4781;48.776;9.200;2023-09-19T09:13:57;18.50;99.90
9486;DHT22;4781;48.776;9.200;2023-09-19T09:16:25;18.60;99.90
9486;DHT22;4781;48.776;9.200;2023-09-19T09:18:54;19.00;99.90
9486;DHT22;4781;48.776;9.200;2023-09-19T09:21:25;19.00;99.90
9486;DHT22;4781;48.776;9.200;2023-09-19T09:23:53;19.10;99.90
9486;DHT22;4781;48.776;9.200;2023-09-19T09:26:41;19.00;99.90
9486;DHT22;4781;48.776;9.200;2023-09-19T09:29:10;19.10;99.90
9486;DHT22;4781;48.776;9.200;2023-09-19T09:31:38;19.30;99.90
9486;DHT22;4781;48.776;9.200;2023-09-19T09:34:08;19.20;99.90
9486;DHT22;4781;48.776;9.200;2023-09-19T09:36:39;19.10;99.90
9486;DHT22;4781;48.776;9.200;2023-09-19T09:39:08;19.10;99.90
9486;DHT22;4781;48.776;9.200;2023-09-19T09:41:47;19.10;99.90
9486;DHT22;4781;48.776;9.200;2023-09-19T09:44:16;19.30;99.90
9486;DHT22;4781;48.776;9.200;2023-09-19T09:46:47;19.30;99.90
9486;DHT22;4781;48.776;9.200;2023-09-19T09:49:25;19.30;99.90
9486;DHT22;4781;48.776;9.200;2023-09-19T09:52:05;19.40;99.90
9486;DHT22;4781;48.776;9.200;2023-09-19T09:54:36;19.60;99.80
9486;DHT22;4781;48.776;9.200;2023-09-19T09:57:07;19.70;99.90
9486;DHT22;4781;48.776;9.200;2023-09-19T10:02:46;20.00;99.90
9486;DHT22;4781;48.776;9.200;2023-09-19T10:05:25;20.20;99.90
9486;DHT22;4781;48.776;9.200;2023-09-19T10:07:57;20.40;98.80
9486;DHT22;4781;48.776;9.200;2023-09-19T10:10:36;20.40;95.80
9486;DHT22;4781;48.776;9.200;2023-09-19T10:13:14;20.40;97.00
9486;DHT22;4781;48.776;9.200;2023-09-19T10:16:06;20.50;95.70
9486;DHT22;4781;48.776;9.200;2023-09-19T10:18:37;20.40;95.10
9486;DHT22;4781;48.776;9.200;2023-09-19T10:21:08;20.50;96.70
9486;DHT22;4781;48.776;9.200;2023-09-19T10:23:38;20.60;96.40
9486;DHT22;4781;48.776;9.200;2023-09-19T10:26:10;20.50;95.50
9486;DHT22;4781;48.776;9.200;2023-09-19T10:28:41;20.30;95.20
9486;DHT22;4781;48.776;9.200;2023-09-19T10:31:11;20.20;95.30
9486;DHT22;4781;48.776;9.200;2023-09-19T10:33:41;20.10;96.60
9486;DHT22;4781;48.776;9.200;2023-09-19T10:36:11;20.00;94.90
9486;DHT22;4781;48.776;9.200;2023-09-19T10:38:43;20.00;96.20
9486;DHT22;4781;48.776;9.200;2023-09-19T10:41:14;20.20;95.70
9486;DHT22;4781;48.776;9.200;2023-09-19T10:43:46;20.10;95.00
9486;DHT22;4781;48.776;9.200;2023-09-19T10:46:16;20.20;94.80
9486;DHT22;4781;48.776;9.200;2023-09-19T10:48:44;20.20;93.70
9486;DHT22;4781;48.776;9.200;2023-09-19T10:51:20;20.30;93.70
9486;DHT22;4781;48.776;9.200;2023-09-19T10:56:50;20.40;94.10
9486;DHT22;4781;48.776;9.200;2023-09-19T10:59:20;20.30;93.60
9486;DHT22;4781;48.776;9.200;2023-09-19T11:01:52;20.20;93.80
9486;DHT22;4781;48.776;9.200;2023-09-19T11:04:34;20.40;94.00
9486;DHT22;4781;48.776;9.200;2023-09-19T11:07:11;20.60;93.10
9486;DHT22;4781;48.776;9.200;2023-09-19T11:10:02;20.70;94.30
9486;DHT22;4781;48.776;9.200;2023-09-19T11:15:05;20.70;93.70
9486;DHT22;4781;48.776;9.200;2023-09-19T11:17:43;20.70;93.10
9486;DHT22;4781;48.776;9.200;2023-09-19T11:20:17;20.50;93.20
9486;DHT22;4781;48.776;9.200;2023-09-19T11:28:27;20.70;93.00
9486;DHT22;4781;48.776;9.200;2023-09-19T11:30:46;20.90;93.30
9486;DHT22;4781;48.776;9.200;2023-09-19T11:33:32;21.00;93.10
9486;DHT22;4781;48.776;9.200;2023-09-19T11:36:09;21.00;91.60
9486;DHT22;4781;48.776;9.200;2023-09-19T11:46:53;20.80;89.80
9486;DHT22;4781;48.776;9.200;2023-09-19T11:49:29;20.70;90.20
9486;DHT22;4781;48.776;9.200;2023-09-19T11:52:01;20.80;90.50
9486;DHT22;4781;48.776;9.200;2023-09-19T11:54:36;20.90;91.00
9486;DHT22;4781;48.776;9.200;2023-09-19T11:57:06;21.20;90.20
9486;DHT22;4781;48.776;9.200;2023-09-19T11:59:38;21.40;91.40
9486;DHT22;4781;48.776;9.200;2023-09-19T12:02:07;21.60;89.60
9486;DHT22;4781;48.776;9.200;2023-09-19T12:04:39;21.70;88.90
9486;DHT22;4781;48.776;9.200;2023-09-19T12:07:13;21.60;90.30
9486;DHT22;4781;48.776;9.200;2023-09-19T12:09:50;21.60;88.90
9486;DHT22;4781;48.776;9.200;2023-09-19T12:12:26;21.80;90.80
9486;DHT22;4781;48.776;9.200;2023-09-19T12:15:02;21.90;88.00
9486;DHT22;4781;48.776;9.200;2023-09-19T12:17:41;21.90;90.00
9486;DHT22;4781;48.776;9.200;2023-09-19T12:20:11;21.90;88.70
9486;DHT22;4781;48.776;9.200;2023-09-19T12:22:44;22.00;88.40
9486;DHT22;4781;48.776;9.200;2023-09-19T12:25:13;22.10;89.70
9486;DHT22;4781;48.776;9.200;2023-09-19T12:27:48;22.10;87.90
9486;DHT22;4781;48.776;9.200;2023-09-19T12:30:19;21.90;87.80
9486;DHT22;4781;48.776;9.200;2023-09-19T12:32:47;22.00;90.10
9486;DHT22;4781;48.776;9.200;2023-09-19T12:35:29;22.20;88.60
9486;DHT22;4781;48.776;9.200;2023-09-19T12:38:00;22.20;87.80
9486;DHT22;4781;48.776;9.200;2023-09-19T12:40:30;22.10;88.30
9486;DHT22;4781;48.776;9.200;2023-09-19T12:43:00;21.90;87.00
9486;DHT22;4781;48.776;9.200;2023-09-19T12:45:33;21.90;88.50
9486;DHT22;4781;48.776;9.200;2023-09-19T12:48:23;22.10;88.00
9486;DHT22;4781;48.776;9.200;2023-09-19T12:51:09;22.10;87.70
9486;DHT22;4781;48.776;9.200;2023-09-19T12:53:44;21.90;86.80
9486;DHT22;4781;48.776;9.200;2023-09-19T12:56:16;21.70;87.30
9486;DHT22;4781;48.776;9.200;2023-09-19T12:58:58;21.70;86.70
9486;DHT22;4781;48.776;9.200;2023-09-19T13:01:28;21.70;87.70
9486;DHT22;4781;48.776;9.200;2023-09-19T13:04:14;21.60;86.30
9486;DHT22;4781;48.776;9.200;2023-09-19T13:06:50;21.60;85.60
9486;DHT22;4781;48.776;9.200;2023-09-19T13:09:20;21.70;87.90
9486;DHT22;4781;48.776;9.200;2023-09-19T13:11:55;21.90;88.60
9486;DHT22;4781;48.776;9.200;2023-09-19T13:14:26;22.00;86.50
9486;DHT22;4781;48.776;9.200;2023-09-19T13:16:58;21.90;86.20
9486;DHT22;4781;48.776;9.200;2023-09-19T13:19:49;21.80;87.20
9486;DHT22;4781;48.776;9.200;2023-09-19T13:22:40;22.00;86.90
9486;DHT22;4781;48.776;9.200;2023-09-19T13:25:16;22.10;85.50
9486;DHT22;4781;48.776;9.200;2023-09-19T13:27:48;22.20;85.40
9486;DHT22;4781;48.776;9.200;2023-09-19T13:30:20;22.30;87.50
9486;DHT22;4781;48.776;9.200;2023-09-19T13:32:49;22.30;86.80
9486;DHT22;4781;48.776;9.200;2023-09-19T13:35:19;22.20;85.10
9486;DHT22;4781;48.776;9.200;2023-09-19T13:37:47;22.20;85.00
9486;DHT22;4781;48.776;9.200;2023-09-19T13:40:17;22.20;84.20
9486;DHT22;4781;48.776;9.200;2023-09-19T13:42:46;22.10;85.40
9486;DHT22;4781;48.776;9.200;2023-09-19T13:45:15;21.90;85.50
9486;DHT22;4781;48.776;9.200;2023-09-19T13:47:45;22.00;86.30
9486;DHT22;4781;48.776;9.200;2023-09-19T13:50:13;22.10;85.90
9486;DHT22;4781;48.776;9.200;2023-09-19T13:52:42;22.30;85.30
9486;DHT22;4781;48.776;9.200;2023-09-19T13:55:10;22.40;85.10
9486;DHT22;4781;48.776;9.200;2023-09-19T13:57:40;22.50;84.40
9486;DHT22;4781;48.776;9.200;2023-09-19T14:00:10;22.60;84.00
9486;DHT22;4781;48.776;9.200;2023-09-19T14:02:41;22.70;82.30
9486;DHT22;4781;48.776;9.200;2023-09-19T14:05:11;22.50;80.80
9486;DHT22;4781;48.776;9.200;2023-09-19T14:07:42;22.60;83.60
9486;DHT22;4781;48.776;9.200;2023-09-19T14:10:12;22.80;83.40
9486;DHT22;4781;48.776;9.200;2023-09-19T14:12:40;22.90;83.90
9486;DHT22;4781;48.776;9.200;2023-09-19T14:15:12;23.00;85.10
9486;DHT22;4781;48.776;9.200;2023-09-19T14:17:41;23.00;82.30
9486;DHT22;4781;48.776;9.200;2023-09-19T14:20:11;22.90;81.90
9486;DHT22;4781;48.776;9.200;2023-09-19T14:22:41;22.80;81.80
9486;DHT22;4781;48.776;9.200;2023-09-19T14:25:10;22.70;82.60
9486;DHT22;4781;48.776;9.200;2023-09-19T14:27:38;22.50;81.10
9486;DHT22;4781;48.776;9.200;2023-09-19T14:30:08;22.40;81.00
9486;DHT22;4781;48.776;9.200;2023-09-19T14:32:37;22.30;79.50
9486;DHT22;4781;48.776;9.200;2023-09-19T14:35:07;22.30;78.60
9486;DHT22;4781;48.776;9.200;2023-09-19T14:37:36;22.30;79.40
9486;DHT22;4781;48.776;9.200;2023-09-19T14:40:06;22.30;80.50
9486;DHT22;4781;48.776;9.200;2023-09-19T14:42:38;22.20;79.40
9486;DHT22;4781;48.776;9.200;2023-09-19T14:45:06;22.30;79.70
9486;DHT22;4781;48.776;9.200;2023-09-19T14:47:35;22.40;78.70
9486;DHT22;4781;48.776;9.200;2023-09-19T14:50:05;22.50;79.90
9486;DHT22;4781;48.776;9.200;2023-09-19T14:52:34;22.60;79.80
9486;DHT22;4781;48.776;9.200;2023-09-19T14:55:02;22.80;78.90
9486;DHT22;4781;48.776;9.200;2023-09-19T14:57:32;22.80;79.50
9486;DHT22;4781;48.776;9.200;2023-09-19T15:00:01;22.80;77.60
9486;DHT22;4781;48.776;9.200;2023-09-19T15:02:31;22.70;77.40
9486;DHT22;4781;48.776;9.200;2023-09-19T15:04:59;22.70;78.40
9486;DHT22;4781;48.776;9.200;2023-09-19T15:07:27;22.80;77.80
9486;DHT22;4781;48.776;9.200;2023-09-19T15:09:56;22.60;77.50
9486;DHT22;4781;48.776;9.200;2023-09-19T15:12:24;22.60;78.70
9486;DHT22;4781;48.776;9.200;2023-09-19T15:14:52;22.50;77.50
9486;DHT22;4781;48.776;9.200;2023-09-19T15:17:21;22.50;78.60
9486;DHT22;4781;48.776;9.200;2023-09-19T15:19:51;22.50;78.90
9486;DHT22;4781;48.776;9.200;2023-09-19T15:22:20;22.40;77.70
9486;DHT22;4781;48.776;9.200;2023-09-19T15:24:49;22.30;77.70
9486;DHT22;4781;48.776;9.200;2023-09-19T15:27:18;22.40;78.80
9486;DHT22;4781;48.776;9.200;2023-09-19T15:29:46;22.30;79.00
9486;DHT22;4781;48.776;9.200;2023-09-19T15:32:15;22.30;79.60
9486;DHT22;4781;48.776;9.200;2023-09-19T15:34:43;22.30;78.90
9486;DHT22;4781;48.776;9.200;2023-09-19T15:37:12;22.30;79.00
9486;DHT22;4781;48.776;9.200;2023-09-19T15:39:40;22.30;79.90
9486;DHT22;4781;48.776;9.200;2023-09-19T15:42:09;22.50;79.10
9486;DHT22;4781;48.776;9.200;2023-09-19T15:44:37;22.50;78.50
9486;DHT22;4781;48.776;9.200;2023-09-19T15:47:07;22.60;79.70
9486;DHT22;4781;48.776;9.200;2023-09-19T15:49:36;22.60;78.30
9486;DHT22;4781;48.776;9.200;2023-09-19T15:52:04;22.50;79.40
9486;DHT22;4781;48.776;9.200;2023-09-19T15:54:34;22.50;79.30
9486;DHT22;4781;48.776;9.200;2023-09-19T15:57:05;22.40;79.10
9486;DHT22;4781;48.776;9.200;2023-09-19T15:59:33;22.40;79.30
9486;DHT22;4781;48.776;9.200;2023-09-19T16:02:03;22.30;78.90
9486;DHT22;4781;48.776;9.200;2023-09-19T16:04:31;22.10;78.90
9486;DHT22;4781;48.776;9.200;2023-09-19T16:07:01;22.00;79.30
9486;DHT22;4781;48.776;9.200;2023-09-19T16:09:30;22.00;79.20
9486;DHT22;4781;48.776;9.200;2023-09-19T16:11:59;21.90;79.60
9486;DHT22;4781;48.776;9.200;2023-09-19T16:14:27;21.90;79.50
9486;DHT22;4781;48.776;9.200;2023-09-19T16:16:57;21.90;79.30
9486;DHT22;4781;48.776;9.200;2023-09-19T16:19:26;21.70;78.80
9486;DHT22;4781;48.776;9.200;2023-09-19T16:21:54;21.70;79.90
9486;DHT22;4781;48.776;9.200;2023-09-19T16:24:23;21.70;79.10
9486;DHT22;4781;48.776;9.200;2023-09-19T16:26:52;21.70;79.70
9486;DHT22;4781;48.776;9.200;2023-09-19T16:29:21;21.70;80.10
9486;DHT22;4781;48.776;9.200;2023-09-19T16:31:50;21.60;80.10
9486;DHT22;4781;48.776;9.200;2023-09-19T16:34:19;21.60;80.00
9486;DHT22;4781;48.776;9.200;2023-09-19T16:36:47;21.50;80.60
9486;DHT22;4781;48.776;9.200;2023-09-19T16:39:16;21.50;81.10
9486;DHT22;4781;48.776;9.200;2023-09-19T16:41:44;21.60;81.40
9486;DHT22;4781;48.776;9.200;2023-09-19T16:44:13;21.50;81.50
9486;DHT22;4781;48.776;9.200;2023-09-19T16:46:42;21.60;82.00
9486;DHT22;4781;48.776;9.200;2023-09-19T16:49:10;21.50;82.70
9486;DHT22;4781;48.776;9.200;2023-09-19T16:51:39;21.50;82.10
9486;DHT22;4781;48.776;9.200;2023-09-19T16:54:09;21.40;81.80
9486;DHT22;4781;48.776;9.200;2023-09-19T16:56:37;21.40;82.40
9486;DHT22;4781;48.776;9.200;2023-09-19T16:59:05;21.30;81.90
9486;DHT22;4781;48.776;9.200;2023-09-19T17:01:34;21.30;82.00
9486;DHT22;4781;48.776;9.200;2023-09-19T17:04:02;21.30;82.70
9486;DHT22;4781;48.776;9.200;2023-09-19T17:06:32;21.30;82.70